Time;durP1;ratioP1;P1;durP2;ratioP2;P2;SDS_P1;SDS_P2;PMS_P1;PMS_P2;Temp;Humidity;BMP_temperature;BMP_pressure;BME280_temperature;BME280_humidity;BME280_pressure;Samples;Min_cycle;Max_cycle;Signal;HPM_P1;HPM_P2
2021/04/23 00:01:15;;;;;;;20.30;8.40;;;;;;;3.87;81.22;102333.28;5064543;28;20052;-77
2021/04/23 00:03:51;;;;;;;15.73;9.05;;;;;;;3.83;81.29;102327.28;5065488;28;20081;-80
2021/04/23 00:06:44;;;;;;;14.73;7.53;;;;;;;3.73;81.72;102327.84;5065484;28;20086;-82
2021/04/23 00:09:18;;;;;;;13.65;8.60;;;;;;;3.69;81.73;102324.50;5049980;28;20075;-78
2021/04/23 00:11:49;;;;;;;16.30;9.35;;;;;;;3.72;82.38;102332.31;5050612;28;20123;-82
2021/04/23 00:14:17;;;;;;;20.35;9.05;;;;;;;3.67;81.67;102326.38;5069685;28;20044;-83
2021/04/23 00:16:43;;;;;;;17.60;9.57;;;;;;;3.71;82.55;102325.28;5048353;28;20056;-82
2021/04/23 00:19:12;;;;;;;21.90;9.73;;;;;;;3.74;81.88;102322.47;5064008;28;20080;-83
2021/04/23 00:21:40;;;;;;;;;;;;;;;3.77;81.46;102318.75;5065911;28;20041;-81
2021/04/23 00:24:06;;;;;;;19.02;9.30;;;;;;;3.51;82.17;102315.72;5066064;28;20438;-78
2021/04/23 00:26:32;;;;;;;23.92;9.55;;;;;;;3.47;82.56;102313.31;5066012;28;20106;-82
2021/04/23 00:28:58;;;;;;;19.05;8.68;;;;;;;3.40;82.67;102318.09;5048145;28;20049;-81
2021/04/23 00:31:23;;;;;;;19.02;9.40;;;;;;;3.44;82.70;102324.94;5048072;28;20063;-80
2021/04/23 00:33:49;;;;;;;17.58;9.27;;;;;;;3.45;82.99;102324.00;5066160;28;20055;-79
2021/04/23 00:36:14;;;;;;;16.00;9.10;;;;;;;3.43;82.82;102327.69;5065476;28;20131;-76
2021/04/23 00:38:40;;;;;;;15.82;8.52;;;;;;;3.39;83.33;102335.81;5063949;28;20083;-77
2021/04/23 00:41:15;;;;;;;20.15;8.50;;;;;;;3.26;83.10;102331.22;5067668;28;20048;-81
2021/04/23 00:43:44;;;;;;;16.60;9.10;;;;;;;3.30;83.41;102330.97;5047596;28;20040;-82
2021/04/23 00:46:13;;;;;;;19.57;10.30;;;;;;;3.33;83.89;102328.16;5065146;28;20045;-78
2021/04/23 00:48:44;;;;;;;17.38;8.93;;;;;;;3.30;83.11;102333.63;5046400;28;20337;-78
2021/04/23 00:51:16;;;;;;;16.88;9.18;;;;;;;3.27;83.62;102330.28;5046629;28;20048;-79
2021/04/23 00:53:47;;;;;;;18.60;9.02;;;;;;;3.17;83.78;102337.84;5066085;28;20039;-81
2021/04/23 00:56:16;;;;;;;20.67;9.75;;;;;;;3.25;84.42;102330.38;5063856;28;20040;-77
2021/04/23 00:58:42;;;;;;;18.98;10.10;;;;;;;3.29;83.84;102329.25;5065188;28;20042;-77
2021/04/23 01:01:10;;;;;;;16.90;9.27;;;;;;;3.27;83.03;102328.47;5064356;28;20041;-81
2021/04/23 01:03:36;;;;;;;17.52;8.98;;;;;;;3.21;83.37;102331.44;5047135;28;20048;-81
2021/04/23 01:06:25;;;;;;;18.98;9.60;;;;;;;3.07;83.46;102337.44;5064395;28;20131;-78
2021/04/23 01:08:51;;;;;;;;;;;;;;;3.06;83.75;102327.78;5033045;28;20051;-80
2021/04/23 01:11:20;;;;;;;17.55;9.40;;;;;;;2.99;85.06;102333.47;5046892;28;19920;-78
2021/04/23 01:13:46;;;;;;;15.13;9.20;;;;;;;3.00;84.69;102329.91;5045366;28;20091;-80
2021/04/23 01:16:17;;;;;;;20.83;9.45;;;;;;;3.00;84.72;102340.50;5044620;28;20115;-78
2021/04/23 01:18:45;;;;;;;20.73;10.48;;;;;;;3.10;84.91;102328.47;5046964;28;20037;-80
2021/04/23 01:21:20;;;;;;;19.55;9.88;;;;;;;3.24;84.49;102339.25;5033691;28;20089;-83
2021/04/23 01:23:48;;;;;;;18.98;9.75;;;;;;;3.25;83.83;102335.69;5068002;28;20047;-75
2021/04/23 01:26:16;;;;;;;18.30;9.30;;;;;;;3.18;83.36;102334.25;5062476;28;20051;-77
2021/04/23 01:28:43;;;;;;;18.17;9.13;;;;;;;3.12;83.89;102327.47;5063954;28;20128;-80
2021/04/23 01:31:10;;;;;;;22.85;10.57;;;;;;;3.10;84.01;102331.13;5030258;28;20033;-80
2021/04/23 01:33:38;;;;;;;20.27;10.50;;;;;;;2.99;83.26;102338.78;5065482;28;20056;-81
2021/04/23 01:36:09;;;;;;;18.80;9.60;;;;;;;2.86;83.81;102336.75;5050122;28;20044;-78
2021/04/23 01:38:36;;;;;;;18.15;9.38;;;;;;;2.79;84.67;102339.78;5050235;28;20068;-76
2021/04/23 01:41:03;;;;;;;21.38;10.10;;;;;;;2.78;84.80;102330.97;5050259;28;20048;-82
2021/04/23 01:43:28;;;;;;;22.00;10.55;;;;;;;2.74;84.83;102336.50;5034143;28;20036;-78
2021/04/23 01:45:54;;;;;;;17.08;9.70;;;;;;;2.72;85.49;102340.06;5031524;28;20401;-80
2021/04/23 01:48:19;;;;;;;19.25;9.77;;;;;;;2.55;84.92;102336.53;5064182;28;20078;-76
2021/04/23 01:50:45;;;;;;;18.75;9.25;;;;;;;2.37;86.58;102336.50;5063686;28;20055;-78
2021/04/23 01:53:11;;;;;;;18.67;9.43;;;;;;;2.50;86.30;102342.06;5072625;28;20087;-80
2021/04/23 01:55:38;;;;;;;23.95;10.05;;;;;;;2.52;86.04;102349.94;5035909;28;20123;-81
2021/04/23 01:58:03;;;;;;;22.17;10.68;;;;;;;2.54;85.93;102353.38;5029803;28;20120;-75
2021/04/23 02:00:37;;;;;;;21.30;10.55;;;;;;;2.54;86.28;102351.59;5049416;28;20147;-80
2021/04/23 02:03:07;;;;;;;19.88;11.10;;;;;;;2.56;85.97;102355.03;5042545;28;20044;-80
2021/04/23 02:05:34;;;;;;;18.75;10.85;;;;;;;2.57;85.93;102358.53;5049768;28;20033;-79
2021/04/23 02:08:00;;;;;;;18.23;9.68;;;;;;;2.52;85.38;102365.84;5071525;28;20103;-84
2021/04/23 02:10:35;;;;;;;20.90;9.27;;;;;;;2.47;85.72;102356.34;5064155;28;20048;-78
2021/04/23 02:13:01;;;;;;;20.27;10.95;;;;;;;2.40;84.98;102360.19;5072306;28;20032;-79
2021/04/23 02:15:27;;;;;;;22.30;10.35;;;;;;;2.32;85.61;102365.00;5053134;28;20051;-76
2021/04/23 02:17:54;;;;;;;18.00;9.38;;;;;;;2.25;85.98;102360.94;5069324;28;20051;-84
2021/04/23 02:20:30;;;;;;;17.48;10.05;;;;;;;2.20;86.23;102355.84;5042663;28;20036;-78
2021/04/23 02:22:57;;;;;;;19.77;10.50;;;;;;;2.21;86.44;102367.28;5070391;28;20190;-81
2021/04/23 02:25:24;;;;;;;20.17;9.95;;;;;;;2.16;86.44;102359.56;5070597;28;20041;-77
2021/04/23 02:27:50;;;;;;;22.88;10.77;;;;;;;2.20;86.32;102366.44;5067768;28;20352;-77
2021/04/23 02:30:24;;;;;;;21.50;10.90;;;;;;;2.18;86.92;102370.94;5065398;28;20056;-80
2021/04/23 02:32:50;;;;;;;18.90;10.23;;;;;;;2.12;86.76;102362.44;5062884;28;20052;-76
2021/04/23 02:35:17;;;;;;;15.98;9.10;;;;;;;2.06;85.85;102360.06;5062625;28;20404;-77
2021/04/23 02:37:43;;;;;;;20.23;10.55;;;;;;;2.01;86.35;102365.56;5053129;28;20607;-77
2021/04/23 02:40:13;;;;;;;20.85;10.73;;;;;;;1.98;86.21;102365.69;5071364;28;20396;-76
2021/04/23 02:42:39;;;;;;;21.70;10.23;;;;;;;1.93;86.08;102363.28;5053437;28;20492;-84
2021/04/23 02:45:07;;;;;;;20.08;9.90;;;;;;;1.88;86.91;102364.41;5053487;28;20043;-80
2021/04/23 02:47:33;;;;;;;19.10;10.85;;;;;;;1.88;86.92;102370.56;5053063;28;20094;-81
2021/04/23 02:49:58;;;;;;;20.40;9.90;;;;;;;1.78;87.18;102379.84;5050908;28;20546;-82
2021/04/23 02:52:24;;;;;;;22.20;10.18;;;;;;;1.80;86.79;102381.50;5070401;28;20037;-76
2021/04/23 02:54:50;;;;;;;20.10;10.00;;;;;;;1.79;86.93;102377.13;5070103;28;20567;-79
2021/04/23 02:57:16;;;;;;;18.65;10.27;;;;;;;1.77;87.00;102379.00;5051928;28;20040;-81
2021/04/23 02:59:42;;;;;;;18.42;11.02;;;;;;;1.82;86.84;102383.22;5051407;28;20044;-80
2021/04/23 03:02:07;;;;;;;18.10;10.23;;;;;;;1.79;87.42;102377.13;5069624;28;20098;-79
2021/04/23 03:04:33;;;;;;;21.50;10.25;;;;;;;1.79;87.23;102379.78;5070401;28;20041;-77
2021/04/23 03:06:58;;;;;;;21.88;9.90;;;;;;;1.68;87.35;102381.19;5070593;28;20043;-79
2021/04/23 03:09:24;;;;;;;22.33;9.75;;;;;;;1.67;87.40;102377.69;5069830;28;20040;-75
2021/04/23 03:11:49;;;;;;;20.00;10.35;;;;;;;1.65;87.88;102379.53;5070429;28;20066;-77
2021/04/23 03:14:14;;;;;;;18.75;10.20;;;;;;;1.64;87.48;102382.25;5047774;28;20044;-81
2021/04/23 03:16:42;;;;;;;18.38;9.75;;;;;;;1.61;88.13;102377.94;5069412;28;20388;-78
2021/04/23 03:19:13;;;;;;;21.55;10.57;;;;;;;1.61;87.84;102382.38;5053650;28;20454;-79
2021/04/23 03:21:40;;;;;;;20.25;10.15;;;;;;;1.63;88.04;102386.69;5051917;28;20132;-80
2021/04/23 03:24:07;;;;;;;21.80;10.55;;;;;;;1.49;87.33;102389.06;5053297;28;20098;-78
2021/04/23 03:26:33;;;;;;;22.20;11.10;;;;;;;1.50;88.57;102386.38;5069541;28;20078;-78
2021/04/23 03:28:58;;;;;;;20.17;11.32;;;;;;;1.58;87.72;102392.19;5052861;28;20495;-75
2021/04/23 03:31:24;;;;;;;23.00;11.45;;;;;;;1.53;87.91;102395.97;5070024;28;20037;-79
2021/04/23 03:33:49;;;;;;;23.88;10.85;;;;;;;1.48;87.63;102388.22;5052449;28;20040;-78
2021/04/23 03:36:14;;;;;;;21.02;10.05;;;;;;;1.43;87.53;102395.47;5033400;28;20036;-76
2021/04/23 03:38:44;;;;;;;20.70;10.52;;;;;;;1.38;88.44;102386.03;5050058;28;20177;-74
2021/04/23 03:41:14;;;;;;;21.50;10.38;;;;;;;1.42;88.52;102401.72;5066682;28;20121;-76
2021/04/23 03:43:40;;;;;;;20.95;9.95;;;;;;;1.39;88.85;102408.94;5066508;28;20037;-77
2021/04/23 03:46:05;;;;;;;22.20;10.65;;;;;;;1.42;88.46;102406.16;5062947;28;20106;-77
2021/04/23 03:48:31;;;;;;;24.17;10.52;;;;;;;1.38;88.86;102401.91;5066990;28;20315;-79
2021/04/23 03:50:57;;;;;;;20.80;10.02;;;;;;;1.31;87.74;102407.44;5062971;28;20435;-78
2021/04/23 03:53:23;;;;;;;20.17;10.85;;;;;;;1.32;88.28;102409.19;5066805;28;20911;-78
2021/04/23 03:55:52;;;;;;;16.98;10.43;;;;;;;1.28;88.98;102401.44;5033234;28;20036;-80
2021/04/23 03:58:19;;;;;;;21.13;10.27;;;;;;;1.21;88.93;102397.31;5046586;28;20432;-77
2021/04/23 04:00:48;;;;;;;21.58;10.48;;;;;;;1.15;88.49;102395.78;5046180;28;20048;-75
2021/04/23 04:03:14;;;;;;;22.73;12.23;;;;;;;1.23;89.72;102404.25;5054446;28;20793;-75
2021/04/23 04:05:40;;;;;;;21.05;11.80;;;;;;;1.31;89.28;102406.59;5064517;28;20139;-79
2021/04/23 04:08:07;;;;;;;19.45;11.60;;;;;;;1.28;89.05;102402.28;5056048;28;20037;-82
2021/04/23 04:10:32;;;;;;;26.08;11.98;;;;;;;1.49;90.58;102397.84;5042294;28;20049;-74
2021/04/23 04:12:58;;;;;;;22.95;10.65;;;;;;;1.57;90.43;102397.53;5064288;28;20094;-77
2021/04/23 04:15:25;;;;;;;22.85;12.10;;;;;;;1.55;89.41;102396.72;5069416;28;20104;-77
2021/04/23 04:17:51;;;;;;;24.38;11.77;;;;;;;1.55;88.63;102404.66;5075370;28;20109;-80
2021/04/23 04:20:18;;;;;;;25.02;12.48;;;;;;;1.48;89.04;102404.09;5035118;28;20482;-78
2021/04/23 04:22:44;;;;;;;22.08;11.63;;;;;;;1.48;89.19;102413.81;5058768;28;20131;-75
2021/04/23 04:25:14;;;;;;;25.50;12.07;;;;;;;1.31;89.78;102409.25;5064906;28;20479;-79
2021/04/23 04:27:41;;;;;;;27.08;11.98;;;;;;;1.36;89.75;102415.19;5067338;28;20044;-82
2021/04/23 04:30:08;;;;;;;21.25;11.10;;;;;;;1.33;89.78;102420.63;5065318;28;20409;-78
2021/04/23 04:32:34;;;;;;;22.75;11.60;;;;;;;1.30;90.58;102421.63;5065488;28;20302;-80
2021/04/23 04:34:59;;;;;;;24.75;11.45;;;;;;;1.40;90.58;102423.88;5064118;28;20789;-79
2021/04/23 04:37:27;;;;;;;24.65;12.50;;;;;;;1.41;89.95;102423.81;5047039;28;20123;-80
2021/04/23 04:39:53;;;;;;;25.40;11.73;;;;;;;1.38;89.15;102423.91;5051552;28;20044;-77
2021/04/23 04:42:19;;;;;;;27.00;12.30;;;;;;;1.48;89.05;102422.59;5070891;28;20032;-76
2021/04/23 04:44:45;;;;;;;21.20;10.70;;;;;;;1.39;89.12;102430.94;5067478;28;20043;-78
2021/04/23 04:47:10;;;;;;;20.38;11.00;;;;;;;1.48;90.17;102419.97;5048737;28;20044;-77
2021/04/23 04:49:36;;;;;;;25.50;11.25;;;;;;;1.48;91.01;102430.53;5069002;28;20072;-75
2021/04/23 04:52:02;;;;;;;25.83;11.82;;;;;;;1.54;89.83;102429.44;5069253;28;20037;-78
2021/04/23 04:54:27;;;;;;;24.52;13.18;;;;;;;1.58;89.76;102437.19;5054503;28;20489;-80
2021/04/23 04:56:52;;;;;;;25.77;11.77;;;;;;;1.64;90.97;102444.00;5063780;28;20049;-82
2021/04/23 04:59:18;;;;;;;23.65;12.23;;;;;;;1.68;90.08;102452.66;5069536;28;20492;-77
2021/04/23 05:01:43;;;;;;;27.73;13.55;;;;;;;1.75;89.91;102448.81;5065220;28;20496;-80
2021/04/23 05:04:09;;;;;;;20.60;11.05;;;;;;;1.80;90.17;102446.81;5058259;28;20446;-80
2021/04/23 05:06:35;;;;;;;27.38;13.43;;;;;;;1.82;90.31;102447.63;5057698;28;20092;-74
2021/04/23 05:09:00;;;;;;;23.75;11.60;;;;;;;1.88;90.40;102444.69;5040877;28;20071;-76
2021/04/23 05:11:25;;;;;;;25.30;12.32;;;;;;;1.96;89.59;102450.53;5060463;28;20052;-76
2021/04/23 05:13:51;;;;;;;27.08;12.77;;;;;;;2.00;89.61;102453.88;5026179;28;20072;-82
2021/04/23 05:16:17;;;;;;;29.02;13.52;;;;;;;2.04;90.29;102455.44;5057598;28;20099;-80
2021/04/23 05:18:43;;;;;;;24.05;12.30;;;;;;;2.05;90.35;102459.84;5056630;28;20082;-80
2021/04/23 05:21:08;;;;;;;26.00;12.70;;;;;;;2.14;90.30;102469.16;5060302;28;20040;-78
2021/04/23 05:23:34;;;;;;;24.98;11.25;;;;;;;2.18;90.60;102463.63;5036626;28;20068;-80
2021/04/23 05:26:00;;;;;;;25.65;12.35;;;;;;;2.23;91.18;102464.28;5044015;28;20408;-76
2021/04/23 05:28:26;;;;;;;23.45;11.65;;;;;;;2.34;90.75;102466.47;5061724;28;20321;-78
2021/04/23 05:30:51;;;;;;;25.80;11.35;;;;;;;2.39;89.59;102456.53;5043530;28;20059;-79
2021/04/23 05:33:17;;;;;;;23.02;11.18;;;;;;;2.45;89.80;102452.72;5058027;28;20041;-79
2021/04/23 05:35:42;;;;;;;23.45;11.20;;;;;;;2.40;91.26;102455.59;5010230;28;20071;-81
2021/04/23 05:38:09;;;;;;;21.20;10.20;;;;;;;2.48;91.58;102453.44;5059176;28;20045;-80
2021/04/23 05:40:43;;;;;;;23.92;11.20;;;;;;;2.69;90.74;102466.63;5061381;28;20056;-84
2021/04/23 05:43:08;;;;;;;23.23;11.52;;;;;;;2.80;89.63;102474.94;5045170;28;20044;-79
2021/04/23 05:45:34;;;;;;;27.38;10.73;;;;;;;2.89;89.37;102465.66;5044783;28;20377;-83
2021/04/23 05:48:01;;;;;;;18.20;9.93;;;;;;;3.00;89.04;102483.72;5060504;28;20287;-79
2021/04/23 05:50:26;;;;;;;24.17;12.10;;;;;;;3.09;88.84;102480.63;5042296;28;20053;-79
2021/04/23 05:52:53;;;;;;;19.15;10.05;;;;;;;3.19;88.89;102487.19;5025242;28;20389;-78
2021/04/23 05:55:25;;;;;;;20.15;9.60;;;;;;;3.27;88.98;102492.97;5061430;28;20470;-76
2021/04/23 05:57:50;;;;;;;19.77;10.10;;;;;;;3.39;89.28;102497.69;5057862;28;20059;-77
2021/04/23 06:00:19;;;;;;;20.38;9.00;;;;;;;3.43;87.87;102493.09;5061682;28;20091;-76
2021/04/23 06:02:44;;;;;;;16.77;8.93;;;;;;;3.51;88.36;102498.00;5045106;28;20037;-82
2021/04/23 06:05:10;;;;;;;20.75;9.45;;;;;;;3.62;87.88;102508.94;5064660;28;20040;-81
2021/04/23 06:07:36;;;;;;;17.05;9.30;;;;;;;3.74;87.61;102499.50;5049074;28;20586;-80
2021/04/23 06:10:07;;;;;;;20.73;9.40;;;;;;;3.80;87.16;102507.16;5047117;28;20045;-79
2021/04/23 06:12:33;;;;;;;19.23;9.20;;;;;;;3.84;87.18;102506.06;5064007;28;20044;-81
2021/04/23 06:14:59;;;;;;;15.15;9.23;;;;;;;3.90;87.55;102502.22;5047196;28;20477;-80
2021/04/23 06:17:25;;;;;;;23.00;10.63;;;;;;;3.95;88.18;102495.75;5065076;28;20131;-75
2021/04/23 06:19:50;;;;;;;20.23;7.97;;;;;;;3.89;89.98;102495.22;5062932;28;20426;-82
2021/04/23 06:22:16;;;;;;;19.92;8.68;;;;;;;4.06;87.11;102497.84;5046361;28;20044;-78
2021/04/23 06:24:41;;;;;;;18.65;9.70;;;;;;;4.15;88.28;102496.50;5024930;28;20094;-80
2021/04/23 06:27:07;;;;;;;18.92;8.35;;;;;;;4.20;87.94;102505.97;5063842;28;20075;-80
2021/04/23 06:29:33;;;;;;;18.25;8.20;;;;;;;4.26;87.67;102505.63;5063226;28;20044;-76
2021/04/23 06:31:59;;;;;;;16.35;7.93;;;;;;;4.34;87.50;102507.00;5058259;28;20508;-82
2021/04/23 06:34:24;;;;;;;19.38;8.07;;;;;;;4.40;87.45;102502.22;5063655;28;20041;-76
2021/04/23 06:36:50;;;;;;;15.73;7.80;;;;;;;4.50;86.74;102510.56;5046157;28;20113;-80
2021/04/23 06:39:17;;;;;;;18.27;7.70;;;;;;;4.59;85.96;102518.03;5069713;28;20478;-82
2021/04/23 06:41:47;;;;;;;19.23;8.90;;;;;;;4.64;85.82;102518.66;5052874;28;20040;-83
2021/04/23 06:44:12;;;;;;;;;;;;;;;4.64;85.55;102512.47;5069318;28;20079;-79
2021/04/23 06:46:38;;;;;;;14.73;8.48;;;;;;;4.66;85.95;102511.44;5048095;28;19948;-79
2021/04/23 06:49:04;;;;;;;15.00;7.78;;;;;;;4.73;85.38;102509.31;5069625;28;20082;-78
2021/04/23 06:51:30;;;;;;;21.63;8.32;;;;;;;4.86;85.21;102515.69;5069971;28;20040;-80
2021/04/23 06:53:56;;;;;;;19.15;7.30;;;;;;;4.86;84.72;102509.47;5049533;28;20055;-80
2021/04/23 06:56:21;;;;;;;19.48;6.70;;;;;;;4.97;84.41;102512.41;5050795;28;20226;-81
2021/04/23 06:58:46;;;;;;;13.00;6.68;;;;;;;5.08;83.18;102520.63;5068604;28;20634;-78
2021/04/23 07:01:16;;;;;;;14.05;6.28;;;;;;;5.14;82.47;102517.63;5065062;28;20052;-80
2021/04/23 07:03:43;;;;;;;14.57;6.88;;;;;;;5.22;82.89;102521.66;5046415;28;20041;-82
2021/04/23 07:06:09;;;;;;;15.50;6.30;;;;;;;5.28;81.79;102527.50;5059470;28;20040;-78
2021/04/23 07:08:35;;;;;;;15.13;6.82;;;;;;;5.36;82.34;102525.25;5067857;28;20043;-77
2021/04/23 07:11:01;;;;;;;17.02;6.10;;;;;;;5.47;81.27;102524.66;5045486;28;20044;-78
2021/04/23 07:13:27;;;;;;;15.98;5.43;;;;;;;5.55;80.95;102535.72;5037401;28;20676;-80
2021/04/23 07:15:52;;;;;;;14.30;5.57;;;;;;;5.64;80.20;102537.84;5067315;28;20060;-80
2021/04/23 07:18:18;;;;;;;14.20;5.82;;;;;;;5.79;79.52;102529.88;5049051;28;20131;-80
2021/04/23 07:20:44;;;;;;;13.63;4.45;;;;;;;5.77;77.61;102529.97;5069255;28;20055;-80
2021/04/23 07:23:09;;;;;;;8.52;4.10;;;;;;;5.81;77.96;102528.84;5050389;28;20139;-79
2021/04/23 07:25:35;;;;;;;11.95;3.65;;;;;;;5.92;76.20;102530.00;5051264;28;20119;-78
2021/04/23 07:28:01;;;;;;;9.35;4.25;;;;;;;5.95;75.42;102529.84;5066439;28;20476;-84
2021/04/23 07:30:30;;;;;;;13.55;4.75;;;;;;;5.99;75.99;102528.75;5049751;28;20048;-82
2021/04/23 07:32:57;;;;;;;14.52;4.15;;;;;;;6.03;74.92;102527.59;5066477;28;20408;-78
2021/04/23 07:35:25;;;;;;;12.73;3.83;;;;;;;6.08;74.81;102529.03;5048519;28;20040;-82
2021/04/23 07:37:50;;;;;;;12.10;3.95;;;;;;;6.18;74.30;102539.13;5066545;28;20121;-81
2021/04/23 07:40:18;;;;;;;9.77;3.67;;;;;;;6.14;73.95;102533.13;5046313;28;20049;-79
2021/04/23 07:42:44;;;;;;;10.60;4.00;;;;;;;6.22;73.62;102530.88;5049536;28;20611;-81
2021/04/23 07:45:10;;;;;;;13.70;4.68;;;;;;;6.30;73.64;102525.94;5064762;28;20099;-79
2021/04/23 07:47:37;;;;;;;13.07;4.10;;;;;;;6.22;73.29;102530.88;5066306;28;20131;-76
2021/04/23 07:50:05;;;;;;;12.02;3.95;;;;;;;6.22;73.60;102530.88;5066965;28;20041;-76
2021/04/23 07:52:30;;;;;;;8.85;3.60;;;;;;;6.37;73.64;102526.41;5066195;28;20341;-82
2021/04/23 07:54:58;;;;;;;7.50;3.90;;;;;;;6.49;72.32;102533.63;5032587;28;20044;-80
2021/04/23 07:57:24;;;;;;;10.10;2.90;;;;;;;6.51;71.68;102526.41;5064726;28;20097;-82
2021/04/23 07:59:49;;;;;;;8.90;2.78;;;;;;;6.45;71.55;102532.13;5048091;28;20459;-82
2021/04/23 08:02:15;;;;;;;10.65;3.28;;;;;;;6.54;71.64;102536.03;5065943;28;20052;-78
2021/04/23 08:04:40;;;;;;;9.13;2.97;;;;;;;6.40;70.26;102544.03;5060964;28;20052;-80
2021/04/23 08:07:07;;;;;;;9.23;3.25;;;;;;;6.29;71.00;102542.00;5065299;28;20041;-80
2021/04/23 08:09:33;;;;;;;8.55;3.35;;;;;;;6.40;71.15;102536.88;5052367;28;20051;-83
2021/04/23 08:11:59;;;;;;;9.05;3.90;;;;;;;6.47;71.50;102532.88;5069599;28;20059;-80
2021/04/23 08:14:24;;;;;;;10.45;3.75;;;;;;;6.65;70.66;102533.53;5070030;28;20048;-81
2021/04/23 08:16:50;;;;;;;10.77;3.22;;;;;;;6.75;70.80;102528.47;5054992;28;20094;-84
2021/04/23 08:19:15;;;;;;;8.55;3.20;;;;;;;6.78;70.41;102536.28;5065929;28;20393;-79
2021/04/23 08:21:41;;;;;;;11.25;3.20;;;;;;;6.84;70.01;102535.88;5047020;28;20132;-79
2021/04/23 08:24:06;;;;;;;11.25;3.38;;;;;;;6.88;70.53;102533.91;5052213;28;20131;-83
2021/04/23 08:26:32;;;;;;;8.18;2.70;;;;;;;6.88;70.15;102544.59;5052477;28;20153;-78
2021/04/23 08:28:57;;;;;;;12.23;3.60;;;;;;;6.93;69.46;102543.34;5069196;28;20128;-84
2021/04/23 08:31:23;;;;;;;11.88;3.58;;;;;;;7.05;69.75;102546.16;5046840;28;20137;-85
2021/04/23 08:33:49;;;;;;;13.02;3.83;;;;;;;7.22;69.16;102546.78;5047840;28;20040;-81
2021/04/23 08:36:14;;;;;;;8.63;2.95;;;;;;;7.29;69.60;102544.56;5047114;28;20083;-80
2021/04/23 08:38:40;;;;;;;12.00;3.15;;;;;;;7.39;69.14;102540.34;5064755;28;20491;-79
2021/04/23 08:41:08;;;;;;;8.50;2.90;;;;;;;7.42;68.12;102541.94;5047748;28;20044;-82
2021/04/23 08:43:34;;;;;;;7.78;3.08;;;;;;;7.34;68.40;102536.28;5051454;28;20036;-79
2021/04/23 08:46:00;;;;;;;10.60;2.88;;;;;;;7.49;68.05;102532.56;5035186;28;20052;-84
2021/04/23 08:48:28;;;;;;;7.70;2.92;;;;;;;7.55;68.61;102536.66;5068600;28;20075;-77
2021/04/23 08:50:55;;;;;;;12.80;3.30;;;;;;;7.74;67.81;102534.47;5047288;28;20544;-79
2021/04/23 08:53:26;;;;;;;9.63;3.00;;;;;;;7.72;67.65;102541.72;5038593;28;20037;-81
2021/04/23 08:55:51;;;;;;;8.63;3.72;;;;;;;7.73;67.84;102535.41;5065650;28;20037;-75
2021/04/23 08:58:17;;;;;;;10.25;3.33;;;;;;;7.61;67.72;102537.09;5065383;28;20136;-79
2021/04/23 09:00:42;;;;;;;12.35;3.13;;;;;;;7.75;67.67;102546.03;5026130;28;20036;-82
2021/04/23 09:03:09;;;;;;;10.70;3.30;;;;;;;7.91;66.80;102544.00;5065518;28;20040;-80
2021/04/23 09:05:35;;;;;;;9.68;3.20;;;;;;;7.80;66.41;102536.72;5022510;28;20488;-81
2021/04/23 09:08:04;;;;;;;8.07;3.25;;;;;;;7.65;66.89;102543.09;5065489;28;20048;-87
2021/04/23 09:10:30;;;;;;;8.15;3.22;;;;;;;7.78;67.21;102538.66;5065299;28;20051;-77
2021/04/23 09:13:07;;;;;;;7.88;3.03;;;;;;;7.90;65.91;102524.44;5047824;28;20049;-75
2021/04/23 09:15:33;;;;;;;9.23;3.25;;;;;;;8.02;66.22;102535.25;5063409;28;20037;-82
2021/04/23 09:18:08;;;;;;;9.85;2.90;;;;;;;8.32;65.82;102535.81;5062701;28;20086;-79
2021/04/23 09:20:34;;;;;;;11.18;3.83;;;;;;;8.61;66.66;102532.94;5065507;28;20040;-80
2021/04/23 09:23:20;;;;;;;8.02;3.13;;;;;;;8.85;63.68;102522.28;5065680;28;20048;-83
2021/04/23 09:25:49;;;;;;;12.48;2.80;;;;;;;9.06;63.82;102527.91;5065801;28;20060;-79
2021/04/23 09:28:32;;;;;;;9.02;2.78;;;;;;;9.29;63.08;102530.72;5045897;28;20060;-83
2021/04/23 09:30:57;;;;;;;8.60;3.08;;;;;;;8.86;63.13;102533.84;5042411;28;20037;-83
2021/04/23 09:33:26;;;;;;;10.30;2.65;;;;;;;8.69;63.72;102527.91;5064165;28;20056;-85
2021/04/23 09:35:52;;;;;;;9.32;3.28;;;;;;;8.71;64.53;102528.63;5047452;28;20507;-82
2021/04/23 09:38:18;;;;;;;7.80;3.40;;;;;;;8.72;64.92;102521.47;5064516;28;20472;-86
2021/04/23 09:40:45;;;;;;;13.00;3.78;;;;;;;8.81;64.62;102531.53;5043296;28;20052;-80
2021/04/23 09:43:11;;;;;;;11.90;3.63;;;;;;;8.75;64.21;102527.47;5046040;28;20070;-77
2021/04/23 09:45:54;;;;;;;10.38;3.17;;;;;;;8.68;65.04;102523.50;5064605;28;20040;-80
2021/04/23 09:48:25;;;;;;;10.57;3.95;;;;;;;8.70;65.49;102540.31;5030611;28;20561;-77
2021/04/23 09:50:53;;;;;;;8.00;3.17;;;;;;;8.65;64.14;102537.09;5065284;28;20455;-80
2021/04/23 09:53:29;;;;;;;10.00;3.37;;;;;;;8.62;63.96;102534.66;5014214;28;20044;-82
2021/04/23 09:55:55;;;;;;;8.23;3.65;;;;;;;8.58;63.75;102533.16;5067117;28;20102;-78
2021/04/23 09:58:21;;;;;;;10.27;3.50;;;;;;;8.51;64.99;102534.56;5051127;28;20056;-82
2021/04/23 10:00:56;;;;;;;10.00;2.72;;;;;;;8.48;62.84;102534.78;5049376;28;20478;-81
2021/04/23 10:03:30;;;;;;;9.32;3.17;;;;;;;8.70;65.14;102532.28;5043723;28;20415;-79
2021/04/23 10:05:55;;;;;;;10.13;3.67;;;;;;;8.98;62.49;102523.13;5051017;28;20033;-83
2021/04/23 10:08:25;;;;;;;8.82;3.72;;;;;;;9.04;62.56;102533.38;5070013;28;20082;-83
2021/04/23 10:10:53;;;;;;;10.20;3.13;;;;;;;9.53;63.12;102522.69;5067157;28;22248;-83
2021/04/23 10:13:33;;;;;;;8.02;3.15;;;;;;;9.50;60.97;102518.41;5068213;28;20039;-79
2021/04/23 10:15:59;;;;;;;7.10;2.78;;;;;;;9.66;61.53;102521.63;5069794;28;20109;-84
2021/04/23 10:18:26;;;;;;;7.13;3.00;;;;;;;9.47;61.14;102530.22;5068773;28;20059;-77
2021/04/23 10:20:54;;;;;;;9.38;3.20;;;;;;;9.30;61.33;102535.13;5067557;28;20032;-83
2021/04/23 10:23:21;;;;;;;9.00;3.35;;;;;;;9.07;62.79;102531.47;5067890;28;20066;-80
2021/04/23 10:25:48;;;;;;;7.68;2.83;;;;;;;8.96;61.35;102530.41;5068621;28;20111;-86
2021/04/23 10:28:22;;;;;;;9.20;3.00;;;;;;;9.05;61.93;102526.19;5049591;28;20046;-81
2021/04/23 10:30:50;;;;;;;7.88;2.60;;;;;;;8.95;62.24;102522.50;5058003;28;20048;-80
2021/04/23 10:33:19;;;;;;;10.20;3.30;;;;;;;9.29;63.12;102520.84;5050155;28;20442;-82
2021/04/23 10:35:47;;;;;;;8.18;3.13;;;;;;;9.42;60.67;102526.16;5044223;28;20033;-80
2021/04/23 10:38:16;;;;;;;7.13;2.65;;;;;;;9.51;60.08;102522.78;5066909;28;20127;-78
2021/04/23 10:40:43;;;;;;;9.15;3.20;;;;;;;9.55;59.84;102521.63;5050725;28;20024;-80
2021/04/23 10:43:17;;;;;;;5.70;2.55;;;;;;;9.46;60.69;102519.59;5050597;28;20045;-79
2021/04/23 10:45:59;;;;;;;10.43;3.38;;;;;;;9.62;60.41;102519.31;5034792;28;20064;-77
2021/04/23 10:48:40;;;;;;;6.90;3.03;;;;;;;9.74;59.81;102520.22;5068322;28;20059;-84
2021/04/23 10:51:22;;;;;;;9.05;3.58;;;;;;;9.80;59.45;102514.38;5034466;28;20508;-78
2021/04/23 10:54:05;;;;;;;8.07;3.00;;;;;;;9.93;60.02;102505.28;5049308;28;20052;-83
2021/04/23 10:56:37;;;;;;;8.50;3.08;;;;;;;10.09;58.56;102514.81;5068979;28;20036;-85
2021/04/23 10:59:04;;;;;;;9.77;3.90;;;;;;;9.88;60.34;102517.31;5067526;28;20041;-77
2021/04/23 11:01:39;;;;;;;11.90;3.42;;;;;;;9.79;59.49;102510.00;5052071;28;20503;-80
2021/04/23 11:04:14;;;;;;;10.27;3.42;;;;;;;10.00;60.18;102513.69;5048937;28;20068;-84
2021/04/23 11:06:43;;;;;;;8.00;3.00;;;;;;;10.13;59.94;102511.78;5048059;28;20060;-80
2021/04/23 11:09:10;;;;;;;;;;;;;;;9.94;59.92;102506.97;5051338;28;20080;-84
2021/04/23 11:11:37;;;;;;;7.22;3.45;;;;;;;9.82;60.63;102512.44;5061154;28;19925;-83
2021/04/23 11:14:25;;;;;;;7.25;3.10;;;;;;;9.84;60.05;102502.44;5045674;28;20346;-81
2021/04/23 11:16:53;;;;;;;8.20;3.47;;;;;;;10.08;61.05;102503.22;5068532;28;20048;-81
2021/04/23 11:19:18;;;;;;;10.45;3.08;;;;;;;10.34;57.58;102497.69;5063700;28;20123;-81
2021/04/23 11:21:48;;;;;;;7.53;3.28;;;;;;;10.38;58.23;102493.78;5052516;28;20072;-79
2021/04/23 11:24:22;;;;;;;7.18;3.08;;;;;;;10.59;55.13;102496.59;5048960;28;20052;-80
2021/04/23 11:29:31;;;;;;;6.63;2.67;;;;;;;10.69;53.73;102496.69;5067870;28;20375;-85